createdAt,value
2023-02-19T00:00:06.740Z,100.00
2023-02-19T00:02:46.762Z,100.00
2023-02-19T00:05:16.022Z,100.00
2023-02-19T00:07:45.186Z,100.00
2023-02-19T00:10:14.226Z,100.00
2023-02-19T00:12:43.315Z,100.00
2023-02-19T00:15:12.377Z,100.00
2023-02-19T00:17:41.328Z,100.00
2023-02-19T00:20:12.389Z,100.00
2023-02-19T00:22:41.356Z,100.00
2023-02-19T00:25:10.529Z,100.00
2023-02-19T00:27:39.563Z,100.00
2023-02-19T00:30:09.355Z,100.00
2023-02-19T00:32:38.412Z,100.00
2023-02-19T00:35:07.993Z,100.00
2023-02-19T00:37:38.283Z,100.00
2023-02-19T00:40:08.109Z,100.00
2023-02-19T00:42:37.280Z,100.00
2023-02-19T00:45:06.801Z,100.00
2023-02-19T00:47:35.891Z,100.00
2023-02-19T00:50:05.137Z,100.00
2023-02-19T00:52:34.218Z,100.00
2023-02-19T00:55:04.810Z,100.00
2023-02-19T00:57:33.905Z,100.00
2023-02-19T01:00:02.874Z,100.00
2023-02-19T01:02:34.918Z,100.00
2023-02-19T01:05:03.923Z,100.00
2023-02-19T01:07:33.083Z,100.00
2023-02-19T01:10:04.137Z,100.00
2023-02-19T01:12:33.437Z,100.00
2023-02-19T01:15:02.590Z,100.00
2023-02-19T01:17:33.429Z,100.00
2023-02-19T01:20:02.336Z,100.00
2023-02-19T01:22:32.060Z,100.00
2023-02-19T01:25:01.244Z,100.00
2023-02-19T01:27:33.550Z,100.00
2023-02-19T01:30:02.600Z,100.00
2023-02-19T01:32:32.753Z,100.00
2023-02-19T01:35:01.766Z,100.00
2023-02-19T01:37:32.718Z,100.00
2023-02-19T01:40:01.748Z,100.00
2023-02-19T01:42:34.030Z,100.00
2023-02-19T01:45:28.493Z,100.00
2023-02-19T01:48:03.991Z,100.00
2023-02-19T01:50:37.697Z,100.00
2023-02-19T01:53:11.465Z,100.00
2023-02-19T01:55:42.172Z,100.00
2023-02-19T01:58:12.878Z,100.00
2023-02-19T02:00:42.302Z,100.00
2023-02-19T02:03:12.087Z,100.00
2023-02-19T02:05:55.549Z,100.00
2023-02-19T02:08:42.598Z,100.00
2023-02-19T02:11:11.820Z,100.00
2023-02-19T02:13:42.528Z,100.00
2023-02-19T02:16:24.455Z,100.00
2023-02-19T02:19:14.257Z,100.00
2023-02-19T02:22:03.237Z,100.00
2023-02-19T02:25:04.238Z,100.00
2023-02-19T02:27:45.264Z,100.00
2023-02-19T02:30:27.330Z,100.00
2023-02-19T02:33:00.423Z,100.00
2023-02-19T02:35:35.699Z,100.00
2023-02-19T02:38:13.706Z,100.00
2023-02-19T02:40:46.518Z,100.00
2023-02-19T02:43:17.782Z,100.00
2023-02-19T02:45:48.441Z,100.00
2023-02-19T02:48:43.176Z,100.00
2023-02-19T02:51:18.428Z,100.00
2023-02-19T02:54:17.184Z,100.00
2023-02-19T02:56:49.551Z,100.00
2023-02-19T02:59:21.749Z,100.00
2023-02-19T03:02:12.657Z,100.00
2023-02-19T03:05:08.472Z,100.00
2023-02-19T03:07:40.732Z,100.00
2023-02-19T03:10:14.632Z,100.00
2023-02-19T03:13:03.900Z,100.00
2023-02-19T03:15:56.276Z,100.00
2023-02-19T03:18:49.315Z,100.00
2023-02-19T03:21:20.812Z,100.00
2023-02-19T03:24:08.003Z,100.00
2023-02-19T03:26:39.667Z,100.00
2023-02-19T03:29:26.293Z,100.00
2023-02-19T03:32:08.588Z,100.00
2023-02-19T03:34:44.524Z,100.00
2023-02-19T03:37:17.886Z,100.00
2023-02-19T03:39:47.753Z,100.00
2023-02-19T03:42:29.816Z,100.00
2023-02-19T03:45:11.096Z,100.00
2023-02-19T03:47:50.175Z,100.00
2023-02-19T03:50:26.835Z,100.00
2023-02-19T03:53:05.266Z,100.00
2023-02-19T03:55:46.055Z,100.00
2023-02-19T03:58:21.516Z,100.00
2023-02-19T04:00:58.851Z,100.00
2023-02-19T04:03:35.522Z,100.00
2023-02-19T04:06:11.472Z,100.00
2023-02-19T04:08:43.978Z,100.00
2023-02-19T04:11:14.594Z,100.00
2023-02-19T04:13:47.444Z,100.00
2023-02-19T04:16:23.137Z,100.00
2023-02-19T04:18:56.829Z,100.00
2023-02-19T04:21:30.772Z,100.00
2023-02-19T04:24:03.977Z,100.00
2023-02-19T04:26:34.699Z,100.00
2023-02-19T04:29:03.920Z,100.00
2023-02-19T04:31:36.707Z,100.00
2023-02-19T04:34:05.947Z,100.00
2023-02-19T04:36:36.720Z,100.00
2023-02-19T04:39:05.835Z,100.00
2023-02-19T04:41:35.039Z,100.00
2023-02-19T04:44:04.186Z,100.00
2023-02-19T04:46:33.369Z,100.00
2023-02-19T04:49:02.371Z,100.00
2023-02-19T04:51:31.354Z,100.00
2023-02-19T04:54:02.013Z,100.00
2023-02-19T04:56:30.874Z,100.00
2023-02-19T04:59:00.020Z,100.00
2023-02-19T05:01:29.277Z,100.00
2023-02-19T05:03:58.303Z,100.00
2023-02-19T05:06:27.701Z,100.00
2023-02-19T05:08:56.638Z,100.00
2023-02-19T05:11:27.225Z,100.00
2023-02-19T05:13:57.078Z,100.00
2023-02-19T05:16:27.106Z,100.00
2023-02-19T05:18:56.129Z,100.00
2023-02-19T05:21:25.022Z,100.00
2023-02-19T05:23:54.079Z,100.00
2023-02-19T05:26:25.162Z,100.00
2023-02-19T05:28:55.577Z,100.00
2023-02-19T05:31:25.108Z,100.00
2023-02-19T05:33:56.353Z,100.00
2023-02-19T05:36:25.550Z,100.00
2023-02-19T05:38:55.661Z,100.00
2023-02-19T05:41:26.401Z,100.00
2023-02-19T05:43:58.344Z,100.00
2023-02-19T05:46:29.764Z,100.00
2023-02-19T05:48:59.657Z,100.00
2023-02-19T05:51:29.578Z,100.00
2023-02-19T05:53:59.151Z,100.00
2023-02-19T05:56:34.452Z,100.00
2023-02-19T05:59:08.177Z,100.00
2023-02-19T06:01:40.123Z,100.00
2023-02-19T06:04:09.094Z,100.00
2023-02-19T06:06:38.587Z,100.00
2023-02-19T06:09:08.840Z,100.00
2023-02-19T06:11:38.194Z,100.00
2023-02-19T06:14:08.902Z,100.00
2023-02-19T06:16:37.940Z,100.00
2023-02-19T06:19:07.085Z,100.00
2023-02-19T06:21:36.523Z,100.00
2023-02-19T06:24:10.029Z,100.00
2023-02-19T06:26:39.938Z,100.00
2023-02-19T06:29:10.540Z,100.00
2023-02-19T06:31:39.651Z,100.00
2023-02-19T06:34:08.678Z,100.00
2023-02-19T06:36:37.928Z,100.00
2023-02-19T06:39:07.818Z,100.00
2023-02-19T06:41:36.916Z,100.00
2023-02-19T06:44:06.238Z,100.00
2023-02-19T06:46:37.120Z,100.00
2023-02-19T06:49:06.627Z,100.00
2023-02-19T06:51:36.113Z,100.00
2023-02-19T06:54:05.466Z,100.00
2023-02-19T06:56:36.068Z,100.00
2023-02-19T06:59:08.563Z,98.15
2023-02-19T07:01:39.873Z,94.73
2023-02-19T07:04:09.395Z,90.64
2023-02-19T07:06:39.148Z,88.80
2023-02-19T07:09:09.659Z,86.59
2023-02-19T07:11:40.616Z,83.91
2023-02-19T07:14:15.440Z,79.90
2023-02-19T07:16:47.623Z,75.89
2023-02-19T07:19:17.275Z,73.05
2023-02-19T07:21:46.296Z,71.28
2023-02-19T07:24:15.430Z,69.68
2023-02-19T07:26:44.544Z,67.29
2023-02-19T07:29:13.686Z,65.86
2023-02-19T07:31:42.970Z,64.21
2023-02-19T07:34:13.475Z,62.65
2023-02-19T07:36:42.589Z,63.29
2023-02-19T07:39:14.736Z,63.26
2023-02-19T07:41:43.797Z,62.69
2023-02-19T07:44:20.196Z,62.18
2023-02-19T07:46:49.174Z,60.57
2023-02-19T07:49:19.808Z,60.34
2023-02-19T07:51:48.812Z,59.08
2023-02-19T07:54:17.835Z,57.64
2023-02-19T07:56:46.803Z,57.33
2023-02-19T07:59:16.175Z,56.40
2023-02-19T08:02:02.729Z,54.97
2023-02-19T08:04:33.587Z,55.40
2023-02-19T08:07:02.594Z,54.91
2023-02-19T08:09:32.619Z,53.78
2023-02-19T08:12:19.167Z,53.11
2023-02-19T08:14:48.358Z,52.76
2023-02-19T08:17:18.790Z,52.00
2023-02-19T08:19:49.348Z,51.95
2023-02-19T08:22:18.683Z,51.69
2023-02-19T08:24:47.662Z,51.51
2023-02-19T08:27:16.767Z,50.38
2023-02-19T08:29:45.830Z,50.34
2023-02-19T08:32:15.016Z,49.28
2023-02-19T08:34:44.426Z,49.51
2023-02-19T08:37:14.990Z,48.97
2023-02-19T08:39:44.016Z,47.36
2023-02-19T08:42:13.431Z,45.87
2023-02-19T08:44:43.060Z,45.15
2023-02-19T08:47:12.368Z,45.65
2023-02-19T08:49:41.457Z,45.61
2023-02-19T08:52:10.570Z,45.67
2023-02-19T08:54:41.037Z,45.15
2023-02-19T08:57:10.347Z,45.10
2023-02-19T08:59:39.414Z,44.58
2023-02-19T09:02:08.577Z,44.40
2023-02-19T09:04:38.544Z,44.10
2023-02-19T09:07:09.946Z,44.15
2023-02-19T09:09:41.457Z,43.46
2023-02-19T09:12:12.579Z,43.84
2023-02-19T09:14:42.394Z,43.44
2023-02-19T09:17:11.898Z,43.69
2023-02-19T09:19:41.243Z,43.76
2023-02-19T09:22:10.854Z,43.12
2023-02-19T09:24:41.441Z,43.42
2023-02-19T09:27:11.114Z,43.24
2023-02-19T09:29:40.314Z,42.48
2023-02-19T09:32:09.528Z,43.69
2023-02-19T09:34:39.612Z,43.28
2023-02-19T09:37:09.125Z,44.52
2023-02-19T09:39:38.548Z,44.27
2023-02-19T09:42:15.644Z,44.28
2023-02-19T09:44:48.854Z,44.74
2023-02-19T09:47:20.767Z,44.28
2023-02-19T09:49:52.463Z,44.56
2023-02-19T09:52:27.813Z,45.11
2023-02-19T09:54:59.657Z,44.53
2023-02-19T09:57:32.705Z,44.55
2023-02-19T10:00:05.534Z,43.41
2023-02-19T10:02:35.081Z,43.91
2023-02-19T10:05:06.417Z,42.14
2023-02-19T10:07:40.671Z,42.33
2023-02-19T10:10:26.116Z,40.92
2023-02-19T10:13:01.298Z,41.60
2023-02-19T10:15:34.926Z,40.96
2023-02-19T10:18:05.778Z,41.12
2023-02-19T10:20:35.582Z,40.65
2023-02-19T10:23:06.979Z,40.15
2023-02-19T10:25:37.189Z,40.46
2023-02-19T10:28:15.048Z,39.42
2023-02-19T10:30:45.265Z,39.44
2023-02-19T10:33:16.448Z,39.54
2023-02-19T10:35:57.398Z,39.80
2023-02-19T10:38:31.283Z,39.33
2023-02-19T10:41:07.951Z,39.18
2023-02-19T10:43:42.610Z,40.00
2023-02-19T10:46:19.407Z,39.30
2023-02-19T10:48:53.822Z,38.21
2023-02-19T10:51:25.718Z,38.81
2023-02-19T10:54:06.944Z,38.83
2023-02-19T10:56:38.805Z,39.08
2023-02-19T10:59:25.805Z,38.33
2023-02-19T11:01:59.958Z,37.17
2023-02-19T11:04:34.230Z,37.97
2023-02-19T11:07:10.973Z,37.83
2023-02-19T11:09:42.976Z,37.61
2023-02-19T11:12:13.928Z,37.65
2023-02-19T11:14:46.141Z,37.13
2023-02-19T11:17:25.907Z,35.81
2023-02-19T11:19:57.699Z,35.14
2023-02-19T11:22:33.013Z,35.06
2023-02-19T11:25:07.031Z,35.04
2023-02-19T11:27:36.221Z,34.73
2023-02-19T11:30:36.481Z,34.41
2023-02-19T11:33:34.105Z,34.18
2023-02-19T11:36:31.081Z,34.26
2023-02-19T11:39:04.268Z,34.33
2023-02-19T11:42:00.901Z,34.41
2023-02-19T11:44:46.974Z,34.23
2023-02-19T11:47:48.852Z,33.55
2023-02-19T11:50:24.618Z,33.14
2023-02-19T11:53:05.886Z,33.15
2023-02-19T11:55:53.030Z,33.06
2023-02-19T11:59:01.178Z,32.26
2023-02-19T12:01:53.241Z,33.16
2023-02-19T12:05:02.575Z,32.55
2023-02-19T12:08:08.866Z,33.24
2023-02-19T12:10:46.794Z,33.17
2023-02-19T12:13:28.545Z,32.82
2023-02-19T12:16:13.464Z,33.26
2023-02-19T12:19:19.994Z,32.97
2023-02-19T12:22:04.797Z,33.25
2023-02-19T12:25:00.770Z,33.18
2023-02-19T12:27:42.275Z,34.42
2023-02-19T12:30:33.406Z,34.34
2023-02-19T12:33:22.240Z,34.78
2023-02-19T12:36:02.489Z,35.11
2023-02-19T12:38:38.287Z,34.76
2023-02-19T12:41:22.978Z,34.15
2023-02-19T12:43:59.464Z,34.58
2023-02-19T12:46:34.065Z,34.60
2023-02-19T12:49:09.583Z,34.32
2023-02-19T12:51:45.555Z,34.65
2023-02-19T12:54:24.012Z,34.34
2023-02-19T12:56:58.237Z,34.58
2023-02-19T12:59:34.454Z,34.55
2023-02-19T13:02:15.352Z,34.77
2023-02-19T13:04:49.538Z,34.42
2023-02-19T13:07:23.143Z,34.34
2023-02-19T13:09:59.512Z,34.30
2023-02-19T13:12:34.500Z,35.08
2023-02-19T13:15:09.414Z,34.25
2023-02-19T13:17:45.609Z,34.86
2023-02-19T13:20:20.793Z,35.43
2023-02-19T13:23:19.483Z,35.10
2023-02-19T13:26:04.097Z,36.41
2023-02-19T13:28:51.952Z,36.65
2023-02-19T13:31:57.265Z,36.56
2023-02-19T13:34:43.543Z,36.27
2023-02-19T13:37:13.525Z,35.97
2023-02-19T13:39:50.354Z,36.21
2023-02-19T13:42:29.163Z,36.81
2023-02-19T13:44:59.050Z,36.62
2023-02-19T13:47:51.296Z,36.23
2023-02-19T13:50:23.999Z,35.82
2023-02-19T13:52:53.838Z,35.54
2023-02-19T13:55:48.797Z,36.07
2023-02-19T13:58:51.250Z,36.37
2023-02-19T14:02:16.159Z,37.46
2023-02-19T14:04:54.257Z,37.55
2023-02-19T14:07:51.879Z,38.08
2023-02-19T14:10:54.999Z,38.81
2023-02-19T14:14:06.843Z,39.12
2023-02-19T14:17:24.141Z,40.37
2023-02-19T14:20:01.209Z,41.31
2023-02-19T14:23:13.729Z,41.28
2023-02-19T14:25:56.605Z,41.42
2023-02-19T14:28:36.583Z,42.02
2023-02-19T14:31:17.812Z,42.04
2023-02-19T14:33:51.391Z,42.81
2023-02-19T14:36:33.000Z,42.49
2023-02-19T14:39:05.730Z,42.38
2023-02-19T14:41:39.879Z,42.37
2023-02-19T14:44:16.103Z,42.05
2023-02-19T14:46:52.908Z,42.28
2023-02-19T14:49:29.621Z,42.17
2023-02-19T14:52:01.526Z,42.24
2023-02-19T14:54:41.430Z,43.21
2023-02-19T14:57:17.870Z,43.09
2023-02-19T14:59:59.044Z,42.63
2023-02-19T15:02:30.111Z,43.56
2023-02-19T15:05:01.043Z,44.13
2023-02-19T15:07:33.236Z,44.61
2023-02-19T15:10:05.947Z,44.21
2023-02-19T15:12:42.686Z,44.67
2023-02-19T15:15:20.242Z,44.70
2023-02-19T15:17:50.236Z,45.52
2023-02-19T15:20:24.406Z,45.34
2023-02-19T15:22:54.701Z,44.73
2023-02-19T15:25:28.380Z,45.45
2023-02-19T15:27:57.629Z,46.31
2023-02-19T15:30:29.744Z,45.56
2023-02-19T15:33:00.784Z,45.80
2023-02-19T15:35:33.678Z,46.42
2023-02-19T15:38:03.145Z,46.88
2023-02-19T15:40:33.406Z,47.27
2023-02-19T15:43:02.735Z,46.72
2023-02-19T15:45:41.474Z,47.54
2023-02-19T15:48:15.690Z,47.82
2023-02-19T15:50:50.065Z,47.65
2023-02-19T15:53:23.860Z,46.93
2023-02-19T15:56:02.321Z,47.21
2023-02-19T15:58:38.288Z,47.16
2023-02-19T16:01:15.556Z,47.20
2023-02-19T16:03:45.309Z,46.82
2023-02-19T16:06:18.069Z,46.44
2023-02-19T16:08:48.739Z,46.84
2023-02-19T16:11:30.361Z,47.10
2023-02-19T16:14:25.680Z,47.15
2023-02-19T16:16:57.670Z,47.32
2023-02-19T16:19:29.532Z,47.49
2023-02-19T16:22:01.179Z,47.90
2023-02-19T16:24:34.243Z,48.66
2023-02-19T16:27:04.716Z,49.35
2023-02-19T16:29:35.596Z,49.30
2023-02-19T16:32:08.402Z,49.54
2023-02-19T16:34:43.055Z,50.14
2023-02-19T16:37:37.320Z,50.05
2023-02-19T16:40:52.627Z,49.71
2023-02-19T16:43:40.920Z,51.24
2023-02-19T16:46:14.498Z,50.97
2023-02-19T16:48:43.804Z,50.51
2023-02-19T16:51:19.578Z,50.58
2023-02-19T16:53:50.207Z,49.97
2023-02-19T16:56:23.145Z,50.09
2023-02-19T16:58:52.440Z,51.45
2023-02-19T17:01:21.684Z,51.15
2023-02-19T17:03:51.853Z,51.07
2023-02-19T17:06:21.276Z,50.39
2023-02-19T17:08:51.974Z,51.19
2023-02-19T17:11:21.186Z,51.44
2023-02-19T17:13:50.412Z,51.56
2023-02-19T17:16:21.425Z,52.72
2023-02-19T17:18:50.788Z,52.71
2023-02-19T17:21:22.744Z,53.36
2023-02-19T17:23:54.245Z,52.20
2023-02-19T17:26:27.184Z,52.73
2023-02-19T17:28:57.877Z,52.34
2023-02-19T17:31:27.611Z,53.00
2023-02-19T17:33:57.151Z,52.43
2023-02-19T17:36:30.376Z,52.57
2023-02-19T17:39:00.910Z,52.72
2023-02-19T17:41:31.198Z,52.61
2023-02-19T17:44:00.475Z,52.61
2023-02-19T17:46:29.919Z,52.42
2023-02-19T17:48:59.264Z,52.74
2023-02-19T17:51:28.339Z,53.63
2023-02-19T17:53:57.512Z,54.15
2023-02-19T17:56:29.588Z,54.63
2023-02-19T17:58:59.271Z,55.78
2023-02-19T18:01:28.570Z,55.61
2023-02-19T18:03:58.095Z,55.28
2023-02-19T18:06:27.224Z,54.54
2023-02-19T18:08:56.457Z,54.59
2023-02-19T18:11:25.949Z,54.44
2023-02-19T18:13:56.569Z,55.40
2023-02-19T18:16:25.958Z,55.88
2023-02-19T18:18:55.264Z,56.54
2023-02-19T18:21:25.776Z,56.58
2023-02-19T18:23:54.955Z,57.02
2023-02-19T18:26:24.926Z,58.74
2023-02-19T18:28:55.716Z,59.36
2023-02-19T18:31:24.930Z,60.49
2023-02-19T18:33:54.168Z,61.27
2023-02-19T18:36:23.371Z,61.19
2023-02-19T18:38:52.378Z,62.04
2023-02-19T18:41:21.890Z,61.61
2023-02-19T18:43:51.029Z,61.52
2023-02-19T18:46:23.129Z,61.34
2023-02-19T18:48:52.559Z,62.66
2023-02-19T18:51:24.037Z,61.45
2023-02-19T18:53:53.304Z,61.76
2023-02-19T18:56:23.292Z,60.79
2023-02-19T18:58:52.474Z,61.15
2023-02-19T19:01:23.287Z,60.82
2023-02-19T19:03:52.493Z,60.68
2023-02-19T19:06:21.538Z,61.17
2023-02-19T19:08:50.971Z,60.46
2023-02-19T19:11:21.299Z,60.38
2023-02-19T19:13:50.801Z,59.85
2023-02-19T19:16:19.984Z,59.20
2023-02-19T19:18:50.856Z,58.83
2023-02-19T19:21:23.941Z,59.04
2023-02-19T19:23:53.291Z,58.85
2023-02-19T19:26:22.409Z,59.49
2023-02-19T19:28:52.035Z,59.72
2023-02-19T19:31:22.535Z,59.51
2023-02-19T19:33:53.997Z,60.85
2023-02-19T19:36:24.934Z,60.60
2023-02-19T19:38:54.364Z,60.64
2023-02-19T19:41:23.577Z,60.59
2023-02-19T19:43:52.795Z,60.73
2023-02-19T19:46:22.218Z,60.75
2023-02-19T19:48:54.245Z,60.99
2023-02-19T19:51:23.579Z,61.17
2023-02-19T19:53:52.852Z,61.56
2023-02-19T19:56:21.903Z,62.20
2023-02-19T19:58:51.168Z,63.56
2023-02-19T20:01:21.440Z,64.69
2023-02-19T20:03:51.331Z,65.28
2023-02-19T20:06:28.130Z,66.77
2023-02-19T20:08:57.692Z,68.16
2023-02-19T20:11:26.763Z,69.69
2023-02-19T20:13:55.890Z,71.65
2023-02-19T20:16:30.609Z,71.91
2023-02-19T20:18:59.877Z,74.01
2023-02-19T20:21:30.523Z,74.12
2023-02-19T20:23:59.954Z,74.95
2023-02-19T20:26:30.308Z,73.65
2023-02-19T20:29:00.222Z,73.16
2023-02-19T20:31:32.845Z,72.08
2023-02-19T20:34:02.464Z,71.62
2023-02-19T20:36:33.360Z,72.22
2023-02-19T20:39:02.335Z,72.93
2023-02-19T20:41:31.558Z,72.04
2023-02-19T20:44:00.651Z,71.68
2023-02-19T20:46:30.108Z,72.30
2023-02-19T20:48:59.216Z,73.38
2023-02-19T20:51:28.448Z,73.09
2023-02-19T20:53:59.120Z,73.69
2023-02-19T20:56:28.173Z,73.43
2023-02-19T20:58:57.537Z,73.46
2023-02-19T21:01:28.137Z,74.27
2023-02-19T21:03:57.318Z,74.25
2023-02-19T21:06:26.589Z,74.62
2023-02-19T21:08:55.791Z,74.89
2023-02-19T21:11:26.767Z,75.73
2023-02-19T21:13:59.189Z,76.19
2023-02-19T21:16:28.958Z,76.21
2023-02-19T21:18:58.374Z,75.59
2023-02-19T21:21:27.698Z,75.65
2023-02-19T21:23:57.761Z,76.74
2023-02-19T21:26:35.855Z,75.89
2023-02-19T21:29:05.915Z,75.65
2023-02-19T21:31:39.220Z,76.76
2023-02-19T21:34:08.769Z,75.65
2023-02-19T21:36:38.582Z,76.71
2023-02-19T21:39:09.273Z,76.27
2023-02-19T21:41:39.877Z,75.31
2023-02-19T21:44:08.985Z,75.55
2023-02-19T21:46:38.249Z,75.19
2023-02-19T21:49:07.641Z,75.89
2023-02-19T21:51:38.569Z,76.48
2023-02-19T21:54:09.024Z,76.08
2023-02-19T21:56:39.731Z,75.69
2023-02-19T21:59:08.930Z,75.81
2023-02-19T22:01:40.169Z,76.98
2023-02-19T22:04:11.173Z,77.87
2023-02-19T22:06:40.812Z,77.80
2023-02-19T22:09:10.519Z,79.16
2023-02-19T22:11:40.841Z,79.15
2023-02-19T22:14:09.769Z,79.07
2023-02-19T22:16:38.797Z,79.41
2023-02-19T22:19:07.974Z,81.46
2023-02-19T22:21:37.210Z,81.52
2023-02-19T22:24:06.643Z,82.90
2023-02-19T22:26:36.824Z,83.69
2023-02-19T22:29:08.548Z,84.51
2023-02-19T22:31:37.470Z,84.78
2023-02-19T22:34:07.046Z,85.13
2023-02-19T22:36:37.672Z,85.28
2023-02-19T22:39:08.476Z,86.22
2023-02-19T22:41:37.412Z,86.16
2023-02-19T22:44:08.047Z,85.72
2023-02-19T22:46:37.217Z,85.40
2023-02-19T22:49:07.580Z,86.11
2023-02-19T22:51:36.988Z,86.40
2023-02-19T22:54:06.057Z,86.44
2023-02-19T22:56:34.966Z,86.81
2023-02-19T22:59:03.946Z,88.02
2023-02-19T23:01:34.353Z,88.46
2023-02-19T23:04:03.440Z,89.90
2023-02-19T23:06:33.963Z,89.67
2023-02-19T23:09:06.412Z,91.27
2023-02-19T23:11:37.529Z,90.77
2023-02-19T23:14:06.866Z,92.26
2023-02-19T23:16:37.369Z,93.17
2023-02-19T23:19:08.330Z,94.68
2023-02-19T23:21:37.594Z,95.83
2023-02-19T23:24:07.197Z,97.19
2023-02-19T23:26:36.580Z,97.92
2023-02-19T23:29:05.678Z,98.24
2023-02-19T23:31:34.990Z,100.00
2023-02-19T23:34:08.150Z,100.00
2023-02-19T23:36:41.337Z,100.00
2023-02-19T23:39:11.449Z,100.00
2023-02-19T23:41:40.629Z,100.00
2023-02-19T23:44:09.745Z,100.00
2023-02-19T23:46:38.733Z,100.00
2023-02-19T23:49:09.282Z,100.00
2023-02-19T23:51:38.506Z,100.00
2023-02-19T23:54:07.937Z,100.00
2023-02-19T23:56:37.442Z,100.00
2023-02-19T23:59:06.862Z,100.00
